sensor_id;sensor_type;location;lat;lon;timestamp;pressure;altitude;pressure_sealevel;temperature;humidity
39891;BME280;25564;53.312;9.790;2022-08-02T00:01:38;101243.25;;;11.14;76.00
39891;BME280;25564;53.312;9.790;2022-08-02T00:04:10;101246.78;;;11.13;76.45
39891;BME280;25564;53.312;9.790;2022-08-02T00:06:42;101238.91;;;11.06;76.63
39891;BME280;25564;53.312;9.790;2022-08-02T00:09:13;101234.50;;;11.03;76.39
39891;BME280;25564;53.312;9.790;2022-08-02T00:11:46;101238.94;;;11.03;75.96
39891;BME280;25564;53.312;9.790;2022-08-02T00:14:17;101245.16;;;11.02;76.49
39891;BME280;25564;53.312;9.790;2022-08-02T00:16:49;101244.31;;;10.97;76.40
39891;BME280;25564;53.312;9.790;2022-08-02T00:19:20;101241.69;;;10.95;76.59
39891;BME280;25564;53.312;9.790;2022-08-02T00:21:52;101242.59;;;10.93;76.74
39891;BME280;25564;53.312;9.790;2022-08-02T00:24:23;101230.25;;;10.87;76.25
39891;BME280;25564;53.312;9.790;2022-08-02T00:27:01;101227.59;;;10.87;76.45
39891;BME280;25564;53.312;9.790;2022-08-02T00:29:39;101235.59;;;10.84;76.70
39891;BME280;25564;53.312;9.790;2022-08-02T00:32:23;101219.72;;;10.78;76.52
39891;BME280;25564;53.312;9.790;2022-08-02T00:34:54;101220.63;;;10.77;76.95
39891;BME280;25564;53.312;9.790;2022-08-02T00:37:25;101227.75;;;10.72;76.97
39891;BME280;25564;53.312;9.790;2022-08-02T00:39:57;101232.16;;;10.73;76.96
39891;BME280;25564;53.312;9.790;2022-08-02T00:42:28;101218.09;;;10.65;76.81
39891;BME280;25564;53.312;9.790;2022-08-02T00:45:00;101231.38;;;10.65;77.14
39891;BME280;25564;53.312;9.790;2022-08-02T00:47:31;101237.56;;;10.64;76.91
39891;BME280;25564;53.312;9.790;2022-08-02T00:50:03;101233.16;;;10.63;77.35
39891;BME280;25564;53.312;9.790;2022-08-02T00:52:35;101230.56;;;10.55;77.12
39891;BME280;25564;53.312;9.790;2022-08-02T00:55:06;101234.97;;;10.59;77.08
39891;BME280;25564;53.312;9.790;2022-08-02T00:57:39;101244.72;;;10.57;77.09
39891;BME280;25564;53.312;9.790;2022-08-02T01:00:11;101245.63;;;10.55;77.25
39891;BME280;25564;53.312;9.790;2022-08-02T01:02:42;101244.78;;;10.48;77.15
39891;BME280;25564;53.312;9.790;2022-08-02T01:05:14;101258.94;;;10.50;77.13
39891;BME280;25564;53.312;9.790;2022-08-02T01:07:45;101259.81;;;10.47;77.23
39891;BME280;25564;53.312;9.790;2022-08-02T01:10:17;101260.75;;;10.43;77.44
39891;BME280;25564;53.312;9.790;2022-08-02T01:12:48;101249.25;;;10.41;77.64
39891;BME280;25564;53.312;9.790;2022-08-02T01:15:20;101266.13;;;10.39;77.92
39891;BME280;25564;53.312;9.790;2022-08-02T01:18:09;101260.84;;;10.36;77.37
39891;BME280;25564;53.312;9.790;2022-08-02T01:21:04;101260.88;;;10.33;77.45
39891;BME280;25564;53.312;9.790;2022-08-02T01:24:23;101260.88;;;10.30;77.87
39891;BME280;25564;53.312;9.790;2022-08-02T01:30:10;101254.75;;;10.23;77.42
39891;BME280;25564;53.312;9.790;2022-08-02T01:32:45;101252.97;;;10.19;77.44
39891;BME280;25564;53.312;9.790;2022-08-02T01:35:22;101252.13;;;10.20;77.96
39891;BME280;25564;53.312;9.790;2022-08-02T01:37:57;101257.41;;;10.19;77.92
39891;BME280;25564;53.312;9.790;2022-08-02T01:40:35;101258.28;;;10.18;77.53
39891;BME280;25564;53.312;9.790;2022-08-02T01:43:08;101257.44;;;10.15;78.02
39891;BME280;25564;53.312;9.790;2022-08-02T01:45:43;101261.88;;;10.12;77.79
39891;BME280;25564;53.312;9.790;2022-08-02T01:48:16;101260.09;;;10.11;78.14
39891;BME280;25564;53.312;9.790;2022-08-02T01:50:50;101255.72;;;10.08;78.36
39891;BME280;25564;53.312;9.790;2022-08-02T01:53:22;101255.75;;;10.02;78.14
39891;BME280;25564;53.312;9.790;2022-08-02T01:55:58;101261.94;;;10.03;78.03
39891;BME280;25564;53.312;9.790;2022-08-02T01:58:33;101254.91;;;9.96;77.98
39891;BME280;25564;53.312;9.790;2022-08-02T02:01:08;101260.19;;;9.97;78.38
39891;BME280;25564;53.312;9.790;2022-08-02T02:03:50;101268.19;;;9.91;78.08
39891;BME280;25564;53.312;9.790;2022-08-02T02:06:21;101274.38;;;9.92;78.52
39891;BME280;25564;53.312;9.790;2022-08-02T02:08:54;101267.31;;;9.88;78.42
39891;BME280;25564;53.312;9.790;2022-08-02T02:11:26;101272.66;;;9.84;77.93
39891;BME280;25564;53.312;9.790;2022-08-02T02:14:18;101254.16;;;9.74;78.27
39891;BME280;25564;53.312;9.790;2022-08-02T02:16:51;101261.22;;;9.72;78.36
39891;BME280;25564;53.312;9.790;2022-08-02T02:19:23;101263.00;;;9.71;78.45
39891;BME280;25564;53.312;9.790;2022-08-02T02:21:56;101263.00;;;9.70;78.30
39891;BME280;25564;53.312;9.790;2022-08-02T02:24:27;101248.91;;;9.60;78.55
39891;BME280;25564;53.312;9.790;2022-08-02T02:26:59;101248.03;;;9.63;78.03
39891;BME280;25564;53.312;9.790;2022-08-02T02:29:34;101241.88;;;9.58;78.50
39891;BME280;25564;53.312;9.790;2022-08-02T02:32:08;101237.47;;;9.52;78.01
39891;BME280;25564;53.312;9.790;2022-08-02T02:34:42;101234.84;;;9.50;78.45
39891;BME280;25564;53.312;9.790;2022-08-02T02:37:22;101235.75;;;9.46;78.11
39891;BME280;25564;53.312;9.790;2022-08-02T02:39:55;101235.75;;;9.43;78.07
39891;BME280;25564;53.312;9.790;2022-08-02T02:42:29;101243.72;;;9.42;78.21
39891;BME280;25564;53.312;9.790;2022-08-02T02:45:02;101242.84;;;9.38;77.92
39891;BME280;25564;53.312;9.790;2022-08-02T02:47:33;101230.53;;;9.36;78.78
39891;BME280;25564;53.312;9.790;2022-08-02T02:50:11;101229.66;;;9.31;78.75
39891;BME280;25564;53.312;9.790;2022-08-02T02:52:44;101218.22;;;9.23;78.69
39891;BME280;25564;53.312;9.790;2022-08-02T02:55:17;101230.56;;;9.28;78.35
39891;BME280;25564;53.312;9.790;2022-08-02T02:57:49;101223.50;;;9.26;78.59
39891;BME280;25564;53.312;9.790;2022-08-02T03:00:21;101217.34;;;9.22;78.64
39891;BME280;25564;53.312;9.790;2022-08-02T03:03:13;101217.34;;;9.19;78.71
39891;BME280;25564;53.312;9.790;2022-08-02T03:05:49;101220.84;;;9.24;78.63
39891;BME280;25564;53.312;9.790;2022-08-02T03:08:21;101230.56;;;9.25;78.56
39891;BME280;25564;53.312;9.790;2022-08-02T03:10:53;101226.16;;;9.26;78.55
39891;BME280;25564;53.312;9.790;2022-08-02T03:13:25;101234.97;;;9.26;78.73
39891;BME280;25564;53.312;9.790;2022-08-02T03:16:03;101229.69;;;9.26;78.53
39891;BME280;25564;53.312;9.790;2022-08-02T03:18:37;101227.03;;;9.28;78.76
39891;BME280;25564;53.312;9.790;2022-08-02T03:21:11;101228.78;;;9.29;78.60
39891;BME280;25564;53.312;9.790;2022-08-02T03:23:44;101226.16;;;9.27;78.71
39891;BME280;25564;53.312;9.790;2022-08-02T03:26:15;101234.97;;;9.29;78.58
39891;BME280;25564;53.312;9.790;2022-08-02T03:28:47;101232.31;;;9.31;78.97
39891;BME280;25564;53.312;9.790;2022-08-02T03:31:18;101216.44;;;9.28;78.80
39891;BME280;25564;53.312;9.790;2022-08-02T03:33:49;101209.38;;;9.28;78.55
39891;BME280;25564;53.312;9.790;2022-08-02T03:36:22;101213.75;;;9.35;78.81
39891;BME280;25564;53.312;9.790;2022-08-02T03:38:54;101219.00;;;9.40;78.84
39891;BME280;25564;53.312;9.790;2022-08-02T03:41:28;101213.69;;;9.43;78.87
39891;BME280;25564;53.312;9.790;2022-08-02T03:44:00;101205.72;;;9.46;79.33
39891;BME280;25564;53.312;9.790;2022-08-02T03:46:32;101212.75;;;9.51;78.80
39891;BME280;25564;53.312;9.790;2022-08-02T03:49:06;101216.28;;;9.55;79.04
39891;BME280;25564;53.312;9.790;2022-08-02T03:51:38;101212.72;;;9.59;79.38
39891;BME280;25564;53.312;9.790;2022-08-02T03:54:10;101208.28;;;9.63;79.43
39891;BME280;25564;53.312;9.790;2022-08-02T03:56:42;101216.19;;;9.67;79.61
39891;BME280;25564;53.312;9.790;2022-08-02T03:59:14;101218.84;;;9.70;78.98
39891;BME280;25564;53.312;9.790;2022-08-02T04:01:45;101215.28;;;9.73;79.42
39891;BME280;25564;53.312;9.790;2022-08-02T04:04:16;101219.66;;;9.78;79.32
39891;BME280;25564;53.312;9.790;2022-08-02T04:06:48;101219.66;;;9.81;79.03
39891;BME280;25564;53.312;9.790;2022-08-02T04:09:19;101207.34;;;9.73;79.33
39891;BME280;25564;53.312;9.790;2022-08-02T04:11:50;101211.72;;;9.78;78.90
39891;BME280;25564;53.312;9.790;2022-08-02T04:14:22;101227.56;;;9.86;79.35
39891;BME280;25564;53.312;9.790;2022-08-02T04:17:01;101227.59;;;9.84;79.13
39891;BME280;25564;53.312;9.790;2022-08-02T04:19:38;101224.94;;;9.84;78.89
39891;BME280;25564;53.312;9.790;2022-08-02T04:22:20;101226.69;;;9.84;78.94
39891;BME280;25564;53.312;9.790;2022-08-02T04:24:57;101233.78;;;9.80;78.76
39891;BME280;25564;53.312;9.790;2022-08-02T04:27:31;101235.56;;;9.78;79.03
39891;BME280;25564;53.312;9.790;2022-08-02T04:30:23;101225.88;;;9.74;78.60
39891;BME280;25564;53.312;9.790;2022-08-02T04:32:55;101226.78;;;9.72;79.06
39891;BME280;25564;53.312;9.790;2022-08-02T04:35:26;101235.63;;;9.66;79.04
39891;BME280;25564;53.312;9.790;2022-08-02T04:37:58;101236.53;;;9.67;79.08
39891;BME280;25564;53.312;9.790;2022-08-02T04:40:49;101233.88;;;9.65;78.96
39891;BME280;25564;53.312;9.790;2022-08-02T04:43:21;101223.28;;;9.65;79.04
39891;BME280;25564;53.312;9.790;2022-08-02T04:45:54;101220.66;;;9.61;79.40
39891;BME280;25564;53.312;9.790;2022-08-02T04:48:25;101241.84;;;9.62;79.69
39891;BME280;25564;53.312;9.790;2022-08-02T04:50:57;101242.72;;;9.66;79.60
39891;BME280;25564;53.312;9.790;2022-08-02T04:53:28;101248.00;;;9.67;79.53
39891;BME280;25564;53.312;9.790;2022-08-02T04:55:59;101238.28;;;9.68;79.24
39891;BME280;25564;53.312;9.790;2022-08-02T04:58:31;101241.78;;;9.71;80.04
39891;BME280;25564;53.312;9.790;2022-08-02T05:01:11;101232.06;;;9.75;79.73
39891;BME280;25564;53.312;9.790;2022-08-02T05:03:42;101227.63;;;9.75;79.55
39891;BME280;25564;53.312;9.790;2022-08-02T05:06:17;101223.16;;;9.83;79.93
39891;BME280;25564;53.312;9.790;2022-08-02T05:08:50;101238.97;;;10.00;79.81
39891;BME280;25564;53.312;9.790;2022-08-02T05:11:24;101231.78;;;10.14;80.01
39891;BME280;25564;53.312;9.790;2022-08-02T05:14:06;101229.03;;;10.31;79.85
39891;BME280;25564;53.312;9.790;2022-08-02T05:16:38;101228.88;;;10.48;80.59
39891;BME280;25564;53.312;9.790;2022-08-02T05:19:09;101227.81;;;10.66;80.57
39891;BME280;25564;53.312;9.790;2022-08-02T05:21:40;101221.44;;;10.85;80.74
39891;BME280;25564;53.312;9.790;2022-08-02T05:24:12;101222.97;;;11.06;81.09
39891;BME280;25564;53.312;9.790;2022-08-02T05:26:43;101231.59;;;11.25;80.55
39891;BME280;25564;53.312;9.790;2022-08-02T05:29:15;101221.56;;;11.45;80.92
39891;BME280;25564;53.312;9.790;2022-08-02T05:31:47;101209.91;;;11.57;80.69
39891;BME280;25564;53.312;9.790;2022-08-02T05:34:19;101231.81;;;11.77;80.44
39891;BME280;25564;53.312;9.790;2022-08-02T05:36:50;101233.38;;;11.92;80.75
39891;BME280;25564;53.312;9.790;2022-08-02T05:39:22;101238.47;;;12.07;80.71
39891;BME280;25564;53.312;9.790;2022-08-02T05:42:02;101232.00;;;12.23;80.63
39891;BME280;25564;53.312;9.790;2022-08-02T05:44:33;101231.75;;;12.38;80.99
39891;BME280;25564;53.312;9.790;2022-08-02T05:47:05;101225.22;;;12.55;80.98
39891;BME280;25564;53.312;9.790;2022-08-02T05:49:36;101231.16;;;12.70;81.10
39891;BME280;25564;53.312;9.790;2022-08-02T05:52:15;101216.69;;;12.85;81.29
39891;BME280;25564;53.312;9.790;2022-08-02T05:54:53;101219.00;;;13.03;81.02
39891;BME280;25564;53.312;9.790;2022-08-02T05:57:31;101215.97;;;13.23;80.75
39891;BME280;25564;53.312;9.790;2022-08-02T06:00:13;101220.03;;;13.41;80.78
39891;BME280;25564;53.312;9.790;2022-08-02T06:03:21;101224.84;;;13.64;80.86
39891;BME280;25564;53.312;9.790;2022-08-02T06:06:06;101220.91;;;13.82;80.83
39891;BME280;25564;53.312;9.790;2022-08-02T06:08:45;101221.41;;;13.97;80.79
39891;BME280;25564;53.312;9.790;2022-08-02T06:11:23;101217.44;;;14.15;80.62
39891;BME280;25564;53.312;9.790;2022-08-02T06:13:54;101224.97;;;14.35;80.70
39891;BME280;25564;53.312;9.790;2022-08-02T06:16:26;101230.88;;;14.49;80.27
39891;BME280;25564;53.312;9.790;2022-08-02T06:19:03;101230.91;;;14.80;81.10
39891;BME280;25564;53.312;9.790;2022-08-02T06:21:36;101234.00;;;15.89;80.38
39891;BME280;25564;53.312;9.790;2022-08-02T06:24:29;101231.91;;;17.52;77.00
39891;BME280;25564;53.312;9.790;2022-08-02T06:27:01;101237.16;;;18.86;74.26
39891;BME280;25564;53.312;9.790;2022-08-02T06:29:33;101237.81;;;19.90;71.06
39891;BME280;25564;53.312;9.790;2022-08-02T06:32:09;101244.59;;;20.71;69.21
39891;BME280;25564;53.312;9.790;2022-08-02T06:34:41;101247.66;;;21.32;67.71
39891;BME280;25564;53.312;9.790;2022-08-02T06:39:47;101251.06;;;21.69;66.09
39891;BME280;25564;53.312;9.790;2022-08-02T06:42:25;101246.78;;;21.65;65.29
39891;BME280;25564;53.312;9.790;2022-08-02T06:45:00;101248.25;;;21.54;65.63
39891;BME280;25564;53.312;9.790;2022-08-02T06:47:32;101242.97;;;21.36;65.58
39891;BME280;25564;53.312;9.790;2022-08-02T06:50:04;101245.28;;;21.26;65.97
39891;BME280;25564;53.312;9.790;2022-08-02T06:52:35;101237.66;;;21.17;66.18
39891;BME280;25564;53.312;9.790;2022-08-02T06:55:07;101220.53;;;21.01;65.91
39891;BME280;25564;53.312;9.790;2022-08-02T06:57:39;101217.84;;;20.83;65.49
39891;BME280;25564;53.312;9.790;2022-08-02T07:00:11;101205.25;;;20.67;64.77
39891;BME280;25564;53.312;9.790;2022-08-02T07:02:42;101211.19;;;20.56;65.11
39891;BME280;25564;53.312;9.790;2022-08-02T07:05:14;101216.09;;;20.48;65.12
39891;BME280;25564;53.312;9.790;2022-08-02T07:07:45;101212.75;;;20.43;63.96
39891;BME280;25564;53.312;9.790;2022-08-02T07:10:16;101211.91;;;20.42;63.89
39891;BME280;25564;53.312;9.790;2022-08-02T07:12:47;101210.00;;;20.44;63.85
39891;BME280;25564;53.312;9.790;2022-08-02T07:15:19;101218.09;;;20.44;63.85
39891;BME280;25564;53.312;9.790;2022-08-02T07:17:50;101220.47;;;20.50;63.59
39891;BME280;25564;53.312;9.790;2022-08-02T07:20:21;101210.25;;;20.57;62.68
39891;BME280;25564;53.312;9.790;2022-08-02T07:22:53;101199.47;;;20.57;62.39
39891;BME280;25564;53.312;9.790;2022-08-02T07:25:24;101211.75;;;20.63;61.70
39891;BME280;25564;53.312;9.790;2022-08-02T07:28:16;101211.53;;;20.67;61.58
39891;BME280;25564;53.312;9.790;2022-08-02T07:30:54;101207.56;;;20.74;61.20
39891;BME280;25564;53.312;9.790;2022-08-02T07:33:26;101206.16;;;20.83;61.06
39891;BME280;25564;53.312;9.790;2022-08-02T07:36:09;101205.59;;;20.94;61.23
39891;BME280;25564;53.312;9.790;2022-08-02T07:38:52;101208.59;;;21.05;61.06
39891;BME280;25564;53.312;9.790;2022-08-02T07:41:24;101207.16;;;21.15;61.17
39891;BME280;25564;53.312;9.790;2022-08-02T07:43:56;101213.69;;;21.28;60.18
39891;BME280;25564;53.312;9.790;2022-08-02T07:46:27;101215.63;;;21.42;60.02
39891;BME280;25564;53.312;9.790;2022-08-02T07:48:58;101214.63;;;21.60;59.42
39891;BME280;25564;53.312;9.790;2022-08-02T07:51:30;101209.16;;;21.77;59.07
39891;BME280;25564;53.312;9.790;2022-08-02T07:54:03;101216.44;;;21.91;58.80
39891;BME280;25564;53.312;9.790;2022-08-02T07:56:35;101220.53;;;21.98;58.00
39891;BME280;25564;53.312;9.790;2022-08-02T07:59:07;101205.59;;;22.08;58.15
39891;BME280;25564;53.312;9.790;2022-08-02T08:01:40;101200.16;;;22.24;57.87
39891;BME280;25564;53.312;9.790;2022-08-02T08:04:16;101193.06;;;22.37;58.13
39891;BME280;25564;53.312;9.790;2022-08-02T08:06:47;101186.47;;;22.57;57.52
39891;BME280;25564;53.312;9.790;2022-08-02T08:09:22;101177.72;;;22.68;57.38
39891;BME280;25564;53.312;9.790;2022-08-02T08:11:53;101179.53;;;22.83;56.95
39891;BME280;25564;53.312;9.790;2022-08-02T08:14:24;101188.59;;;22.96;56.09
39891;BME280;25564;53.312;9.790;2022-08-02T08:16:56;101172.66;;;23.06;55.98
39891;BME280;25564;53.312;9.790;2022-08-02T08:19:27;101163.00;;;23.16;55.56
39891;BME280;25564;53.312;9.790;2022-08-02T08:22:19;101167.53;;;23.30;55.67
39891;BME280;25564;53.312;9.790;2022-08-02T08:24:50;101160.69;;;23.24;54.94
39891;BME280;25564;53.312;9.790;2022-08-02T08:27:22;101164.16;;;23.40;55.05
39891;BME280;25564;53.312;9.790;2022-08-02T08:29:53;101164.66;;;23.61;54.84
39891;BME280;25564;53.312;9.790;2022-08-02T08:32:25;101165.13;;;23.68;54.03
39891;BME280;25564;53.312;9.790;2022-08-02T08:34:57;101156.59;;;23.74;53.94
39891;BME280;25564;53.312;9.790;2022-08-02T08:37:33;101144.38;;;23.81;53.86
39891;BME280;25564;53.312;9.790;2022-08-02T08:40:08;101136.94;;;23.97;53.25
39891;BME280;25564;53.312;9.790;2022-08-02T08:42:40;101140.41;;;23.99;53.31
39891;BME280;25564;53.312;9.790;2022-08-02T08:45:11;101150.75;;;24.07;53.07
39891;BME280;25564;53.312;9.790;2022-08-02T08:47:43;101142.31;;;24.11;52.61
39891;BME280;25564;53.312;9.790;2022-08-02T08:50:20;101139.19;;;24.18;52.12
39891;BME280;25564;53.312;9.790;2022-08-02T08:53:06;101139.94;;;24.20;52.04
39891;BME280;25564;53.312;9.790;2022-08-02T08:55:42;101137.41;;;24.31;52.61
39891;BME280;25564;53.312;9.790;2022-08-02T08:58:15;101144.59;;;24.44;52.73
39891;BME280;25564;53.312;9.790;2022-08-02T09:00:46;101150.41;;;24.65;52.78
39891;BME280;25564;53.312;9.790;2022-08-02T09:03:18;101147.81;;;24.76;52.19
39891;BME280;25564;53.312;9.790;2022-08-02T09:05:49;101141.72;;;24.86;51.65
39891;BME280;25564;53.312;9.790;2022-08-02T09:08:21;101127.28;;;24.85;50.80
39891;BME280;25564;53.312;9.790;2022-08-02T09:10:52;101133.03;;;24.93;51.67
39891;BME280;25564;53.312;9.790;2022-08-02T09:13:27;101122.06;;;24.95;51.09
39891;BME280;25564;53.312;9.790;2022-08-02T09:16:33;101126.84;;;25.04;51.13
39891;BME280;25564;53.312;9.790;2022-08-02T09:19:18;101120.75;;;25.26;50.65
39891;BME280;25564;53.312;9.790;2022-08-02T09:21:59;101118.97;;;25.50;50.32
39891;BME280;25564;53.312;9.790;2022-08-02T09:24:41;101119.78;;;25.63;49.13
39891;BME280;25564;53.312;9.790;2022-08-02T09:27:14;101122.22;;;25.68;49.49
39891;BME280;25564;53.312;9.790;2022-08-02T09:29:49;101121.34;;;25.67;49.19
39891;BME280;25564;53.312;9.790;2022-08-02T09:32:46;101114.81;;;25.70;50.09
39891;BME280;25564;53.312;9.790;2022-08-02T09:35:38;101116.94;;;25.78;49.76
39891;BME280;25564;53.312;9.790;2022-08-02T09:38:33;101115.84;;;25.80;49.27
39891;BME280;25564;53.312;9.790;2022-08-02T09:41:19;101117.53;;;25.94;48.49
39891;BME280;25564;53.312;9.790;2022-08-02T09:43:51;101123.88;;;26.05;48.05
39891;BME280;25564;53.312;9.790;2022-08-02T09:46:37;101125.03;;;26.14;48.31
39891;BME280;25564;53.312;9.790;2022-08-02T09:49:17;101105.13;;;26.14;47.35
39891;BME280;25564;53.312;9.790;2022-08-02T09:51:50;101111.31;;;26.16;47.76
39891;BME280;25564;53.312;9.790;2022-08-02T09:54:24;101112.16;;;26.16;48.11
39891;BME280;25564;53.312;9.790;2022-08-02T09:56:59;101110.59;;;26.25;48.20
39891;BME280;25564;53.312;9.790;2022-08-02T09:59:31;101115.56;;;26.31;47.41
39891;BME280;25564;53.312;9.790;2022-08-02T10:02:09;101103.03;;;26.41;47.22
39891;BME280;25564;53.312;9.790;2022-08-02T10:04:48;101121.88;;;26.55;47.29
39891;BME280;25564;53.312;9.790;2022-08-02T10:07:23;101111.50;;;26.60;46.89
39891;BME280;25564;53.312;9.790;2022-08-02T10:09:55;101113.22;;;26.61;46.28
39891;BME280;25564;53.312;9.790;2022-08-02T10:12:27;101115.59;;;26.66;45.88
39891;BME280;25564;53.312;9.790;2022-08-02T10:14:58;101117.31;;;26.67;46.27
39891;BME280;25564;53.312;9.790;2022-08-02T10:17:30;101108.66;;;26.73;45.39
39891;BME280;25564;53.312;9.790;2022-08-02T10:20:02;101114.63;;;26.78;45.15
39891;BME280;25564;53.312;9.790;2022-08-02T10:22:36;101113.88;;;26.87;45.24
39891;BME280;25564;53.312;9.790;2022-08-02T10:25:09;101117.75;;;26.96;44.63
39891;BME280;25564;53.312;9.790;2022-08-02T10:27:42;101105.25;;;27.04;44.58
39891;BME280;25564;53.312;9.790;2022-08-02T10:30:37;101096.94;;;26.95;44.05
39891;BME280;25564;53.312;9.790;2022-08-02T10:33:10;101097.94;;;26.94;44.44
39891;BME280;25564;53.312;9.790;2022-08-02T10:35:45;101098.06;;;26.92;44.18
39891;BME280;25564;53.312;9.790;2022-08-02T10:38:34;101112.28;;;26.96;43.33
39891;BME280;25564;53.312;9.790;2022-08-02T10:41:06;101104.50;;;26.91;42.96
39891;BME280;25564;53.312;9.790;2022-08-02T10:43:41;101103.16;;;26.97;43.10
39891;BME280;25564;53.312;9.790;2022-08-02T10:46:28;101111.31;;;27.08;42.95
39891;BME280;25564;53.312;9.790;2022-08-02T10:49:11;101110.44;;;27.19;43.33
39891;BME280;25564;53.312;9.790;2022-08-02T10:52:04;101103.25;;;27.29;42.62
39891;BME280;25564;53.312;9.790;2022-08-02T10:54:39;101090.50;;;27.29;42.84
39891;BME280;25564;53.312;9.790;2022-08-02T10:57:20;101091.50;;;27.28;42.13
39891;BME280;25564;53.312;9.790;2022-08-02T11:02:54;101081.81;;;27.47;43.08
39891;BME280;25564;53.312;9.790;2022-08-02T11:05:33;101069.53;;;27.63;42.14
39891;BME280;25564;53.312;9.790;2022-08-02T11:08:19;101073.22;;;27.74;41.90
39891;BME280;25564;53.312;9.790;2022-08-02T11:10:50;101073.72;;;27.79;42.09
39891;BME280;25564;53.312;9.790;2022-08-02T11:13:22;101081.13;;;27.88;42.20
39891;BME280;25564;53.312;9.790;2022-08-02T11:16:02;101078.22;;;28.00;41.38
39891;BME280;25564;53.312;9.790;2022-08-02T11:21:33;101065.13;;;27.83;41.01
39891;BME280;25564;53.312;9.790;2022-08-02T11:24:30;101072.31;;;27.84;41.27
39891;BME280;25564;53.312;9.790;2022-08-02T11:27:04;101063.88;;;27.87;41.70
39891;BME280;25564;53.312;9.790;2022-08-02T11:29:40;101065.97;;;27.95;41.96
39891;BME280;25564;53.312;9.790;2022-08-02T11:32:19;101067.31;;;28.00;40.78
39891;BME280;25564;53.312;9.790;2022-08-02T11:34:52;101071.75;;;28.02;40.45
39891;BME280;25564;53.312;9.790;2022-08-02T11:37:35;101063.75;;;28.10;41.05
39891;BME280;25564;53.312;9.790;2022-08-02T11:40:10;101081.66;;;28.35;40.78
39891;BME280;25564;53.312;9.790;2022-08-02T11:42:50;101080.41;;;28.39;40.87
39891;BME280;25564;53.312;9.790;2022-08-02T11:45:24;101069.13;;;28.53;40.77
39891;BME280;25564;53.312;9.790;2022-08-02T11:48:00;101054.94;;;28.59;40.06
39891;BME280;25564;53.312;9.790;2022-08-02T11:50:31;101047.63;;;28.59;40.08
39891;BME280;25564;53.312;9.790;2022-08-02T11:53:12;101048.53;;;28.70;40.24
39891;BME280;25564;53.312;9.790;2022-08-02T11:55:43;101054.91;;;28.80;40.36
39891;BME280;25564;53.312;9.790;2022-08-02T11:58:14;101045.34;;;28.85;39.44
39891;BME280;25564;53.312;9.790;2022-08-02T12:00:46;101054.69;;;28.83;38.97
39891;BME280;25564;53.312;9.790;2022-08-02T12:03:18;101045.09;;;28.68;39.26
39891;BME280;25564;53.312;9.790;2022-08-02T12:05:50;101044.34;;;28.65;39.57
39891;BME280;25564;53.312;9.790;2022-08-02T12:08:36;101028.34;;;28.82;39.36
39891;BME280;25564;53.312;9.790;2022-08-02T12:11:08;101027.16;;;29.05;39.17
39891;BME280;25564;53.312;9.790;2022-08-02T12:13:43;101012.84;;;29.32;39.16
39891;BME280;25564;53.312;9.790;2022-08-02T12:16:38;101024.25;;;29.47;39.30
39891;BME280;25564;53.312;9.790;2022-08-02T12:19:29;101020.41;;;29.59;39.10
39891;BME280;25564;53.312;9.790;2022-08-02T12:22:19;101014.94;;;29.59;37.78
39891;BME280;25564;53.312;9.790;2022-08-02T12:24:56;101006.84;;;29.48;37.86
39891;BME280;25564;53.312;9.790;2022-08-02T12:27:36;101009.66;;;29.37;37.82
39891;BME280;25564;53.312;9.790;2022-08-02T12:30:10;101005.31;;;29.24;37.98
39891;BME280;25564;53.312;9.790;2022-08-02T12:32:42;101005.34;;;29.34;38.38
39891;BME280;25564;53.312;9.790;2022-08-02T12:35:16;100993.19;;;29.48;37.52
39891;BME280;25564;53.312;9.790;2022-08-02T12:38:08;100989.38;;;29.39;36.73
39891;BME280;25564;53.312;9.790;2022-08-02T12:40:40;101012.88;;;29.42;36.45
39891;BME280;25564;53.312;9.790;2022-08-02T12:43:21;100992.13;;;29.39;36.56
39891;BME280;25564;53.312;9.790;2022-08-02T12:45:54;100994.19;;;29.47;37.04
39891;BME280;25564;53.312;9.790;2022-08-02T12:48:35;100993.47;;;29.64;36.39
39891;BME280;25564;53.312;9.790;2022-08-02T12:51:29;100981.53;;;29.84;36.98
39891;BME280;25564;53.312;9.790;2022-08-02T12:54:34;100994.34;;;29.93;37.16
39891;BME280;25564;53.312;9.790;2022-08-02T12:57:10;100976.38;;;30.01;36.54
39891;BME280;25564;53.312;9.790;2022-08-02T12:59:48;100981.56;;;30.04;36.26
39891;BME280;25564;53.312;9.790;2022-08-02T13:02:20;100985.13;;;30.14;35.64
39891;BME280;25564;53.312;9.790;2022-08-02T13:04:52;100987.53;;;30.26;35.40
39891;BME280;25564;53.312;9.790;2022-08-02T13:07:23;100984.63;;;30.38;35.40
39891;BME280;25564;53.312;9.790;2022-08-02T13:09:54;100984.44;;;30.49;35.25
39891;BME280;25564;53.312;9.790;2022-08-02T13:12:33;100981.84;;;30.47;35.00
39891;BME280;25564;53.312;9.790;2022-08-02T13:15:07;100973.66;;;30.38;35.80
39891;BME280;25564;53.312;9.790;2022-08-02T13:17:58;100985.22;;;30.32;35.10
39891;BME280;25564;53.312;9.790;2022-08-02T13:20:31;100980.91;;;30.29;34.64
39891;BME280;25564;53.312;9.790;2022-08-02T13:23:03;100987.22;;;30.39;34.92
39891;BME280;25564;53.312;9.790;2022-08-02T13:25:34;100989.47;;;30.63;35.54
39891;BME280;25564;53.312;9.790;2022-08-02T13:28:06;100991.16;;;30.74;34.74
39891;BME280;25564;53.312;9.790;2022-08-02T13:30:37;100985.94;;;30.80;34.79
39891;BME280;25564;53.312;9.790;2022-08-02T13:33:09;100978.59;;;30.81;35.22
39891;BME280;25564;53.312;9.790;2022-08-02T13:35:41;100982.34;;;30.80;34.66
39891;BME280;25564;53.312;9.790;2022-08-02T13:38:13;100985.09;;;30.80;34.88
39891;BME280;25564;53.312;9.790;2022-08-02T13:40:44;100980.94;;;30.76;34.89
39891;BME280;25564;53.312;9.790;2022-08-02T13:43:36;100967.88;;;30.60;35.09
39891;BME280;25564;53.312;9.790;2022-08-02T13:46:24;100958.41;;;30.35;34.75
39891;BME280;25564;53.312;9.790;2022-08-02T13:48:59;100965.34;;;30.30;35.57